Latest Weather Observations for Julia Creek

IDQ60801

Issued at 8:02 am EST Wednesday 26 April 2017 (issued every 30 minutes, with the page automatically refreshed every 10 minutes)

About weather observations | Map of weather stations | Latest weather observations for QLD | Other Formats
Station Details ID: 029058 Name: JULIA CREEK AIRPORT Lat: -20.67 Lon: 141.72 Height: 122.5 m
Data from the previous 72 hours. | See also: Recent months at Julia Creek
Date/Time
EST
Temp
°C
App
Temp
°C
Dew
Point
°C
Rel
Hum
%
Delta-T
°C
Wind Press
QNH
hPa
Press
MSL
hPa
Rain since
9am
mm
Dir  Spd
km/h
Gust
km/h
Spd
kts
Gust
kts
26/08:00am 25.2 21.9 11.7 43 7.7 SSW 20 28 11 15 1015.2 1014.5 0.0
26/07:30am 23.2 20.4 11.3 47 6.7 SSW 17 22 9 12 1014.8 1014.1 0.0
26/07:00am 20.1 18.0 9.9 52 5.5 SW 11 15 6 8 1014.4 1013.7 0.0
26/06:30am 18.8 16.6 7.9 49 5.6 WSW 9 11 5 6 1014.0 1013.3 0.0
26/06:00am 19.4 17.4 8.7 50 5.6 WSW 9 13 5 7 1013.5 1012.9 0.0
26/05:30am 19.6 18.9 8.6 49 5.8 SW 2 4 1 2 1013.0 1012.4 0.0
26/05:00am 20.2 18.0 9.2 49 5.9 SSW 11 13 6 7 1013.0 1012.4 0.0
26/04:30am 19.6 19.1 7.7 46 6.1 CALM 0 6 0 3 1012.5 1011.9 0.0
26/04:00am 20.3 19.4 7.7 44 6.5 E 2 4 1 2 1012.2 1011.6 0.0
26/03:30am 20.6 19.8 9.5 49 6.0 E 4 4 2 2 1012.0 1011.4 0.0
26/03:00am 20.8 19.6 9.4 48 6.1 E 6 7 3 4 1012.0 1011.4 0.0
26/02:30am 21.3 19.1 9.2 46 6.5 ENE 11 15 6 8 1012.1 1011.5 0.0
26/02:00am 21.3 19.7 7.9 42 7.0 WNW 6 6 3 3 1012.1 1011.5 0.0
26/01:30am 21.6 20.7 7.8 41 7.2 WNW 2 2 1 1 1012.1 1011.5 0.0
26/01:00am 22.2 21.4 8.0 40 7.5 WNW 2 4 1 2 1012.2 1011.6 0.0
26/12:30am 23.0 21.9 9.8 43 7.2 WNW 6 6 3 3 1012.5 1011.9 0.0
26/12:00am 23.1 22.1 10.2 44 7.1 WNW 6 7 3 4 1012.7 1012.1 0.0
 
Date/Time
EST
Temp
°C
App
Temp
°C
Dew
Point
°C
Rel
Hum
%
Delta-T
°C
Wind Press
QNH
hPa
Press
MSL
hPa
Rain since
9am
mm
Dir  Spd
km/h
Gust
km/h
Spd
kts
Gust
kts
25/11:30pm 23.5 22.1 9.5 41 7.6 WNW 7 9 4 5 1012.8 1012.2 0.0
25/11:00pm 23.8 22.7 9.8 41 7.7 WNW 6 7 3 4 1012.9 1012.3 0.0
25/10:30pm 24.4 23.3 9.9 40 8.0 WNW 6 7 3 4 1013.0 1012.4 0.0
25/10:00pm 25.2 23.9 9.9 38 8.5 WNW 7 7 4 4 1013.1 1012.5 0.0
25/09:30pm 26.1 24.9 10.3 37 8.9 WNW 7 7 4 4 1013.3 1012.7 0.0
25/09:00pm 25.6 23.7 9.0 35 9.1 WNW 9 9 5 5 1013.3 1012.7 0.0
25/08:30pm 26.3 24.4 9.2 34 9.4 WNW 9 9 5 5 1013.0 1012.4 0.0
25/08:00pm 26.3 24.2 8.3 32 9.8 WNW 9 9 5 5 1012.7 1012.1 0.0
25/07:30pm 27.8 26.4 9.6 32 10.2 WNW 7 9 4 5 1012.4 1011.8 0.0
25/07:00pm 28.9 27.5 9.6 30 10.8 WNW 7 7 4 4 1012.1 1011.5 0.0
25/06:30pm 30.7 30.0 10.1 28 11.8 WNW 4 6 2 3 1011.7 1011.0 0.0
25/06:00pm 32.7 32.9 11.8 28 12.4 WNW 2 6 1 3 1011.6 1010.9 0.0
25/05:30pm 33.8 33.5 11.6 26 13.1 NNW 4 7 2 4 1011.5 1010.8 0.0
25/05:00pm 34.0 32.3 11.2 25 13.4 NNW 11 26 6 14 1011.2 1010.5 0.0
25/04:30pm 35.0 34.9 12.0 25 13.8 W 4 7 2 4 1011.2 1010.5 0.0
25/04:00pm 34.4 34.1 11.5 25 13.6 NW 4 9 2 5 1011.1 1010.4 0.0
25/03:30pm 34.7 34.5 11.8 25 13.7 NNW 4 9 2 5 1011.2 1010.5 0.0
25/03:00pm 34.9 34.4 12.0 25 13.7 NNE 6 11 3 6 1011.4 1010.7 0.0
25/02:30pm 33.6 32.7 11.5 26 13.1 NNE 7 13 4 7 1011.8 1011.1 0.0
25/02:00pm 33.9 33.3 12.3 27 12.9 NNW 7 17 4 9 1012.2 1011.6 0.0
25/01:30pm 34.0 33.2 12.9 28 12.8 WNW 9 15 5 8 1012.7 1012.1 0.0
25/01:00pm 33.5 33.3 13.0 29 12.4 NNW 6 9 3 5 1013.2 1012.6 0.0
25/12:30pm 33.0 32.8 13.6 31 11.8 NNW 7 13 4 7 1013.5 1012.9 0.0
25/12:00pm 32.1 31.4 13.3 31 11.3 NW 9 20 5 11 1014.2 1013.5 0.0
25/11:30am 32.4 32.6 14.1 33 11.2 NE 6 15 3 8 1014.8 1014.1 0.0
25/11:00am 31.6 31.3 14.3 35 10.6 N 9 15 5 8 1015.3 1014.6 0.0
25/10:30am 30.2 29.5 14.3 38 9.7 NNW 11 17 6 9 1015.7 1015.0 0.0
25/10:00am 29.2 28.1 14.2 40 9.1 NNE 13 20 7 11 1015.8 1015.1 0.0
25/09:30am 27.8 26.7 14.4 43 8.1 NNE 13 20 7 11 1016.0 1015.3 0.0
25/09:00am 26.6 25.4 14.0 46 7.5 N 13 19 7 10 1015.8 1015.1 0.0
25/08:30am 25.7 25.8 13.9 48 7.0 ENE 6 7 3 4 1015.5 1014.8 0.0
25/08:00am 23.8 23.8 12.4 48 6.5 ENE 4 4 2 2 1015.1 1014.4 0.0
25/07:30am 21.3 20.8 10.8 51 5.8 ENE 4 6 2 3 1014.7 1014.0 0.0
25/07:00am 19.0 17.9 10.0 56 4.8 ENE 6 7 3 4 1014.2 1013.5 0.0
25/06:30am 18.3 17.0 9.1 55 4.8 ENE 6 6 3 3 1014.0 1013.3 0.0
25/06:00am 19.3 18.0 9.8 54 5.1 ENE 7 9 4 5 1013.5 1012.9 0.0
25/05:30am 19.2 17.7 8.5 50 5.6 ENE 6 6 3 3 1013.3 1012.7 0.0
25/05:00am 19.0 17.2 8.1 49 5.6 ENE 7 9 4 5 1013.2 1012.6 0.0
25/04:30am 19.3 17.4 7.7 47 6.0 ENE 7 11 4 6 1013.2 1012.6 0.0
25/04:00am 20.6 19.0 8.9 47 6.2 ENE 7 11 4 6 1012.9 1012.3 0.0
25/03:30am 20.1 18.0 8.1 46 6.3 ESE 9 11 5 6 1012.7 1012.1 0.0
25/03:00am 20.3 18.1 8.0 45 6.4 SE 9 11 5 6 1012.8 1012.2 0.0
25/02:30am 20.7 18.5 7.7 43 6.7 SE 9 9 5 5 1013.0 1012.4 0.0
25/02:00am 21.8 19.3 8.0 41 7.3 SE 11 15 6 8 1013.1 1012.5 0.0
25/01:30am 22.0 19.5 8.2 41 7.3 SE 11 13 6 7 1013.4 1012.8 0.0
25/01:00am 22.1 19.2 8.2 41 7.3 SE 13 13 7 7 1013.6 1013.0 0.0
25/12:30am 22.9 20.4 8.2 39 7.8 SE 11 13 6 7 1013.8 1013.2 0.0
25/12:00am 23.3 20.8 8.2 38 8.0 SE 11 11 6 6 1014.1 1013.4 0.0
 
Date/Time
EST
Temp
°C
App
Temp
°C
Dew
Point
°C
Rel
Hum
%
Delta-T
°C
Wind Press
QNH
hPa
Press
MSL
hPa
Rain since
9am
mm
Dir  Spd
km/h
Gust
km/h
Spd
kts
Gust
kts
24/11:30pm 24.1 22.1 8.5 37 8.4 ESE 9 11 5 6 1014.3 1013.6 0.0
24/11:00pm 26.3 24.1 9.2 34 9.4 E 11 15 6 8 1014.4 1013.7 0.0
24/10:30pm 26.3 23.7 9.2 34 9.4 ENE 13 17 7 9 1014.6 1013.9 0.0
24/10:00pm 25.2 22.9 9.1 36 8.8 SE 11 13 6 7 1014.2 1013.5 0.0
24/09:30pm 25.3 22.9 8.7 35 9.0 SE 11 13 6 7 1014.0 1013.3 0.0
24/09:00pm 26.1 23.8 9.0 34 9.4 SE 11 13 6 7 1013.7 1013.1 0.0
24/08:30pm 25.9 23.3 9.3 35 9.1 SSE 13 15 7 8 1013.3 1012.7 0.0
24/08:00pm 25.9 23.4 8.0 32 9.6 SE 11 13 6 7 1013.0 1012.4 0.0
24/07:30pm 27.1 25.5 8.0 30 10.3 E 6 7 3 4 1012.4 1011.8 0.0
24/07:00pm 29.2 27.4 9.3 29 11.1 E 9 9 5 5 1012.1 1011.5 0.0
24/06:30pm 30.5 29.1 9.4 27 11.9 E 7 9 4 5 1012.0 1011.4 0.0
24/06:00pm 33.0 30.9 9.7 24 13.4 E 11 17 6 9 1011.8 1011.1 0.0
24/05:30pm 34.1 30.9 10.0 23 13.9 E 17 24 9 13 1011.6 1010.9 0.0
24/05:00pm 34.7 32.3 9.9 22 14.4 ESE 13 24 7 13 1011.5 1010.8 0.0
24/04:30pm 35.0 33.4 10.1 22 14.5 E 9 20 5 11 1011.4 1010.7 0.0
24/04:00pm 35.2 33.0 10.9 23 14.3 E 13 24 7 13 1011.5 1010.8 0.0
24/03:30pm 35.2 33.8 10.9 23 14.3 E 9 20 5 11 1011.7 1011.0 0.0
24/03:00pm 34.7 33.2 10.5 23 14.2 E 9 24 5 13 1011.9 1011.3 0.0
24/02:30pm 35.0 33.7 11.4 24 14.0 E 9 24 5 13 1012.2 1011.6 0.0
24/02:00pm 34.3 31.7 10.8 24 13.8 E 15 28 8 15 1012.6 1012.0 0.0
24/01:30pm 34.8 32.2 11.9 25 13.7 SSE 17 28 9 15 1013.3 1012.7 0.0
24/01:00pm 33.9 31.4 11.1 25 13.4 E 15 32 8 17 1014.0 1013.3 0.0
24/12:30pm 33.8 30.9 12.2 27 12.9 ESE 19 30 10 16 1014.7 1014.0 0.0
24/12:00pm 32.8 30.3 12.4 29 12.2 ESE 17 28 9 15 1015.2 1014.5 0.0
24/11:30am 32.8 31.0 13.4 30 11.8 ESE 15 22 8 12 1015.9 1015.2 0.0
24/11:00am 32.0 30.2 13.2 31 11.3 E 15 26 8 14 1016.4 1015.7 0.0
24/10:30am 30.9 29.9 14.5 37 10.0 ENE 13 24 7 13 1016.8 1016.1 0.0
24/10:00am 29.8 28.8 14.7 39 9.2 E 13 19 7 10 1016.9 1016.2 0.0
24/09:30am 28.3 27.5 15.2 44 8.0 ENE 13 20 7 11 1016.8 1016.1 0.0
24/09:00am 27.3 26.6 15.3 48 7.3 E 13 19 7 10 1016.7 1016.0 0.0
24/08:30am 25.8 24.7 15.2 52 6.4 E 15 22 8 12 1016.5 1015.8 0.0
24/08:00am 23.6 22.3 13.8 54 5.8 ESE 13 17 7 9 1016.3 1015.6 0.0
24/07:30am 20.8 20.2 12.2 58 4.9 ESE 7 9 4 5 1015.9 1015.2 0.0
24/07:00am 17.8 16.1 9.7 59 4.3 ESE 9 11 5 6 1015.7 1015.0 0.0
24/06:30am 17.3 15.3 8.7 57 4.5 ESE 9 11 5 6 1015.3 1014.6 0.0
24/06:00am 17.7 16.2 9.1 57 4.5 ESE 7 9 4 5 1014.9 1014.2 0.0
24/05:30am 17.9 16.2 8.5 54 4.9 ESE 7 9 4 5 1014.6 1013.9 0.0
24/05:00am 18.3 16.3 8.8 54 5.0 ESE 9 11 5 6 1014.5 1013.8 0.0
24/04:30am 18.7 17.3 8.9 53 5.1 ESE 6 7 3 4 1014.4 1013.7 0.0
24/04:00am 18.9 16.9 8.6 51 5.4 ESE 9 9 5 5 1014.3 1013.6 0.0
24/03:30am 20.1 17.9 9.4 50 5.7 ESE 11 13 6 7 1014.5 1013.8 0.0
24/03:00am 20.3 18.1 9.2 49 5.9 ESE 11 13 6 7 1014.5 1013.8 0.0
24/02:30am 20.3 18.0 8.9 48 6.0 ESE 11 13 6 7 1014.6 1013.9 0.0
24/02:00am 21.2 18.5 8.8 45 6.6 ESE 13 13 7 7 1014.8 1014.1 0.0
24/01:30am 22.2 19.6 9.4 44 6.9 ESE 13 15 7 8 1015.1 1014.4 0.0
24/01:00am 22.9 19.9 9.3 42 7.4 SE 15 19 8 10 1015.1 1014.4 0.0
24/12:30am 22.8 20.1 8.9 41 7.5 SSE 13 17 7 9 1015.3 1014.6 0.0
24/12:00am 23.0 20.6 8.7 40 7.7 SSE 11 13 6 7 1015.4 1014.7 0.0
 
Date/Time
EST
Temp
°C
App
Temp
°C
Dew
Point
°C
Rel
Hum
%
Delta-T
°C
Wind Press
QNH
hPa
Press
MSL
hPa
Rain since
9am
mm
Dir  Spd
km/h
Gust
km/h
Spd
kts
Gust
kts
23/11:30pm 23.7 21.0 8.9 39 8.0 SSE 13 15 7 8 1015.4 1014.7 0.0
23/11:00pm 23.5 21.0 8.4 38 8.1 SSE 11 15 6 8 1015.7 1015.0 0.0
23/10:30pm 23.7 20.8 8.2 37 8.3 SSE 13 15 7 8 1015.6 1014.9 0.0
23/10:00pm 23.9 21.0 8.3 37 8.3 SSE 13 13 7 7 1015.7 1015.0 0.0
23/09:30pm 25.4 22.7 8.8 35 9.0 SSE 13 17 7 9 1015.7 1015.0 0.0
23/09:00pm 25.4 22.9 8.4 34 9.2 SSE 11 13 6 7 1015.4 1014.7 0.0
23/08:30pm 26.1 23.2 8.1 32 9.7 SSE 13 15 7 8 1015.2 1014.5 0.0
23/08:00pm 26.5 23.7 8.5 32 9.8 SSE 13 15 7 8 1014.9 1014.2 0.0
23/07:30pm 26.5 24.0 8.0 31 10.0 SSE 11 13 6 7 1014.4 1013.7 0.0
23/07:00pm 28.5 26.1 8.7 29 10.9 SSE 11 13 6 7 1014.0 1013.3 0.0
23/06:30pm 30.4 27.8 9.3 27 11.9 SSE 13 19 7 10 1013.8 1013.2 0.0
23/06:00pm 31.9 28.9 9.4 25 12.8 SE 15 24 8 13 1013.5 1012.9 0.0
23/05:30pm 32.9 29.1 9.7 24 13.3 SE 20 28 11 15 1013.1 1012.5 0.0
23/05:00pm 33.5 29.7 8.9 22 14.0 SE 19 26 10 14 1012.8 1012.2 0.0
23/04:30pm 33.9 30.1 9.2 22 14.1 SE 19 30 10 16 1012.7 1012.1 0.0
23/04:00pm 33.6 30.3 9.6 23 13.8 SE 17 28 9 15 1012.8 1012.2 0.0
23/03:30pm 34.5 30.3 9.7 22 14.3 SE 22 37 12 20 1012.9 1012.3 0.0
23/03:00pm 34.4 31.9 10.9 24 13.8 ESE 15 24 8 13 1013.0 1012.4 0.0
23/02:30pm 33.7 31.2 10.9 25 13.4 SE 15 24 8 13 1013.3 1012.7 0.0
23/02:00pm 33.4 29.5 10.7 25 13.2 ESE 22 37 12 20 1013.7 1013.1 0.0
23/01:30pm 34.0 31.3 11.8 26 13.2 ESE 17 28 9 15 1014.2 1013.5 0.0
23/01:00pm 33.1 29.8 11.0 26 12.9 ESE 19 33 10 18 1014.8 1014.1 0.0
23/12:30pm 33.3 30.8 12.3 28 12.5 ESE 17 30 9 16 1015.3 1014.6 0.0
23/12:00pm 32.3 29.5 12.5 30 11.8 SE 19 28 10 15 1015.9 1015.2 0.0
23/11:30am 31.9 30.4 13.2 32 11.3 ESE 13 20 7 11 1016.5 1015.8 0.0
23/11:00am 31.2 29.6 13.9 35 10.5 ESE 15 26 8 14 1016.9 1016.2 0.0
23/10:30am 30.5 28.4 13.7 35 10.1 E 17 24 9 13 1017.3 1016.6 0.0
23/10:00am 29.6 27.9 14.6 40 9.1 E 17 22 9 12 1017.5 1016.8 0.0
23/09:30am 28.8 27.7 15.3 43 8.3 ENE 15 22 8 12 1017.3 1016.6 0.0
23/09:00am 28.0 27.4 15.6 46 7.6 E 13 20 7 11 1017.3 1016.6 0.0
23/08:30am 25.5 24.8 14.3 50 6.7 E 11 17 6 9 1017.3 1016.6 0.0

Other Formats:

Comma delimited format used in spreadsheet applications
http://www.bom.gov.au/fwo/IDQ60801/IDQ60801.94337.axf

JavaScript Object Notation format (JSON) in row-major order
http://www.bom.gov.au/fwo/IDQ60801/IDQ60801.94337.json